createdAt,value
2023-04-11T00:00:57.748Z,97.10
2023-04-11T00:03:25.459Z,96.80
2023-04-11T00:05:52.551Z,96.90
2023-04-11T00:08:19.626Z,97.70
2023-04-11T00:10:46.586Z,97.90
2023-04-11T00:13:13.649Z,97.40
2023-04-11T00:15:40.575Z,97.80
2023-04-11T00:18:08.045Z,97.90
2023-04-11T00:20:35.078Z,98.00
2023-04-11T00:23:02.070Z,99.00
2023-04-11T00:25:30.378Z,98.70
2023-04-11T00:27:57.415Z,99.50
2023-04-11T00:30:24.581Z,98.70
2023-04-11T00:32:51.545Z,98.70
2023-04-11T00:35:19.196Z,98.70
2023-04-11T00:37:47.082Z,98.80
2023-04-11T00:40:16.269Z,98.60
2023-04-11T00:42:43.594Z,99.40
2023-04-11T00:45:11.056Z,99.90
2023-04-11T00:47:38.652Z,99.90
2023-04-11T00:50:06.432Z,99.90
2023-04-11T00:52:34.376Z,99.90
2023-04-11T00:55:05.446Z,99.90
2023-04-11T00:57:32.654Z,99.90
2023-04-11T01:00:01.871Z,99.90
2023-04-11T01:02:29.928Z,99.90
2023-04-11T01:04:57.380Z,99.90
2023-04-11T01:07:25.393Z,99.90
2023-04-11T01:09:54.240Z,99.90
2023-04-11T01:12:21.965Z,99.90
2023-04-11T01:14:49.739Z,99.90
2023-04-11T01:17:17.113Z,99.90
2023-04-11T01:19:44.237Z,99.90
2023-04-11T01:22:14.764Z,99.90
2023-04-11T01:24:42.032Z,99.90
2023-04-11T01:27:09.398Z,99.90
2023-04-11T01:29:36.914Z,99.90
2023-04-11T01:32:03.975Z,99.90
2023-04-11T01:34:32.456Z,99.90
2023-04-11T01:36:59.498Z,99.60
2023-04-11T01:39:26.510Z,99.70
2023-04-11T01:41:56.977Z,99.80
2023-04-11T01:44:26.443Z,99.90
2023-04-11T01:46:53.503Z,99.90
2023-04-11T01:49:21.674Z,99.90
2023-04-11T01:51:48.638Z,99.90
2023-04-11T01:54:15.826Z,99.90
2023-04-11T01:56:43.127Z,99.80
2023-04-11T01:59:10.304Z,99.90
2023-04-11T02:01:37.304Z,99.90
2023-04-11T02:04:04.513Z,99.80
2023-04-11T02:06:32.329Z,99.70
2023-04-11T02:08:59.326Z,99.60
2023-04-11T02:11:26.324Z,98.60
2023-04-11T02:13:53.375Z,98.30
2023-04-11T02:16:20.910Z,96.30
2023-04-11T02:18:48.118Z,96.40
2023-04-11T02:21:15.128Z,95.30
2023-04-11T02:23:42.111Z,95.50
2023-04-11T02:26:09.372Z,93.10
2023-04-11T02:28:36.784Z,92.60
2023-04-11T02:31:04.052Z,91.80
2023-04-11T02:33:31.255Z,88.90
2023-04-11T02:35:58.495Z,86.50
2023-04-11T02:38:25.834Z,83.90
2023-04-11T02:40:52.738Z,80.40
2023-04-11T02:43:19.744Z,78.70
2023-04-11T02:45:47.084Z,78.70
2023-04-11T02:48:14.614Z,77.90
2023-04-11T02:50:44.866Z,75.60
2023-04-11T02:53:12.326Z,75.70
2023-04-11T02:55:46.958Z,76.30
2023-04-11T02:58:17.852Z,77.10
2023-04-11T03:00:46.785Z,77.40
2023-04-11T03:03:14.625Z,77.90
2023-04-11T03:05:47.088Z,78.90
2023-04-11T03:08:17.866Z,79.40
2023-04-11T03:10:50.742Z,79.40
2023-04-11T03:13:18.003Z,78.80
2023-04-11T03:15:45.265Z,80.10
2023-04-11T03:18:13.213Z,79.60
2023-04-11T03:20:43.612Z,79.80
2023-04-11T03:23:12.836Z,80.10
2023-04-11T03:25:40.662Z,80.10
2023-04-11T03:28:08.526Z,79.80
2023-04-11T03:30:35.610Z,79.30
2023-04-11T03:33:02.813Z,78.70
2023-04-11T03:35:31.260Z,79.10
2023-04-11T03:37:58.314Z,79.50
2023-04-11T03:40:26.170Z,79.30
2023-04-11T03:43:08.105Z,78.60
2023-04-11T03:45:36.590Z,78.80
2023-04-11T03:48:06.652Z,78.40
2023-04-11T03:50:46.810Z,78.90
2023-04-11T03:53:16.114Z,78.50
2023-04-11T03:55:45.170Z,79.00
2023-04-11T03:58:16.616Z,78.10
2023-04-11T04:00:43.814Z,77.50
2023-04-11T04:03:13.804Z,77.40
2023-04-11T04:05:41.911Z,78.00
2023-04-11T04:08:10.881Z,77.40
2023-04-11T04:10:42.243Z,77.50
2023-04-11T04:13:09.685Z,77.00
2023-04-11T04:15:41.104Z,77.10
2023-04-11T04:18:09.616Z,78.10
2023-04-11T04:20:47.562Z,76.70
2023-04-11T04:23:18.309Z,77.30
2023-04-11T04:26:08.322Z,77.50
2023-04-11T04:28:36.664Z,77.60
2023-04-11T04:31:04.697Z,78.40
2023-04-11T04:33:38.445Z,78.20
2023-04-11T04:36:25.996Z,78.20
2023-04-11T04:38:53.278Z,78.50
2023-04-11T04:41:22.982Z,79.40
2023-04-11T04:43:58.559Z,78.70
2023-04-11T04:46:46.260Z,79.20
2023-04-11T04:49:13.893Z,79.10
2023-04-11T04:51:40.894Z,79.60
2023-04-11T04:54:08.876Z,77.00
2023-04-11T04:56:36.420Z,77.50
2023-04-11T04:59:03.703Z,77.90
2023-04-11T05:01:33.057Z,77.60
2023-04-11T05:04:02.633Z,78.70
2023-04-11T05:06:45.352Z,79.20
2023-04-11T05:09:12.410Z,80.70
2023-04-11T05:11:39.660Z,81.20
2023-04-11T05:14:06.888Z,81.90
2023-04-11T05:16:34.623Z,81.60
2023-04-11T05:19:01.548Z,82.50
2023-04-11T05:21:30.283Z,83.40
2023-04-11T05:23:57.417Z,83.50
2023-04-11T05:26:24.810Z,83.90
2023-04-11T05:28:51.781Z,84.10
2023-04-11T05:31:21.717Z,84.80
2023-04-11T05:33:49.254Z,83.40
2023-04-11T05:36:16.539Z,83.90
2023-04-11T05:38:44.144Z,84.80
2023-04-11T05:41:11.556Z,85.10
2023-04-11T05:43:38.516Z,83.50
2023-04-11T05:46:07.981Z,84.50
2023-04-11T05:48:35.322Z,83.50
2023-04-11T05:51:02.197Z,82.40
2023-04-11T05:53:29.227Z,81.80
2023-04-11T05:55:57.771Z,82.00
2023-04-11T05:58:25.249Z,81.20
2023-04-11T06:00:52.195Z,80.00
2023-04-11T06:03:19.225Z,78.80
2023-04-11T06:05:46.287Z,78.90
2023-04-11T06:08:13.226Z,77.60
2023-04-11T06:10:40.239Z,75.60
2023-04-11T06:13:07.129Z,75.90
2023-04-11T06:15:34.272Z,76.40
2023-04-11T06:18:01.200Z,77.60
2023-04-11T06:20:28.111Z,78.90
2023-04-11T06:22:54.910Z,79.60
2023-04-11T06:25:22.230Z,79.60
2023-04-11T06:27:49.127Z,80.80
2023-04-11T06:30:16.047Z,81.60
2023-04-11T06:32:43.222Z,80.70
2023-04-11T06:35:10.173Z,80.30
2023-04-11T06:37:36.997Z,80.50
2023-04-11T06:40:07.029Z,80.80
2023-04-11T06:42:34.074Z,80.60
2023-04-11T06:45:01.218Z,77.80
2023-04-11T06:47:28.584Z,78.90
2023-04-11T06:49:55.734Z,79.60
2023-04-11T06:52:22.650Z,80.00
2023-04-11T06:54:49.516Z,78.50
2023-04-11T06:57:16.363Z,78.60
2023-04-11T06:59:43.509Z,80.20
2023-04-11T07:02:10.669Z,79.60
2023-04-11T07:04:37.942Z,80.60
2023-04-11T07:07:04.949Z,80.10
2023-04-11T07:09:32.106Z,78.80
2023-04-11T07:11:59.315Z,79.50
2023-04-11T07:14:26.347Z,78.10
2023-04-11T07:16:53.265Z,77.60
2023-04-11T07:19:20.133Z,76.80
2023-04-11T07:21:47.124Z,76.30
2023-04-11T07:24:13.943Z,75.70
2023-04-11T07:26:42.307Z,74.50
2023-04-11T07:29:12.357Z,73.60
2023-04-11T07:31:41.478Z,71.70
2023-04-11T07:34:08.390Z,71.30
2023-04-11T07:36:35.460Z,70.20
2023-04-11T07:39:04.458Z,69.20
2023-04-11T07:41:31.392Z,70.30
2023-04-11T07:43:58.611Z,69.10
2023-04-11T07:46:25.859Z,63.00
2023-04-11T07:48:52.785Z,63.10
2023-04-11T07:51:19.799Z,59.20
2023-04-11T07:53:46.754Z,58.40
2023-04-11T07:56:14.984Z,58.90
2023-04-11T07:58:42.010Z,57.00
2023-04-11T08:01:19.468Z,57.40
2023-04-11T08:03:46.404Z,56.80
2023-04-11T08:06:13.578Z,53.70
2023-04-11T08:08:40.654Z,52.20
2023-04-11T08:11:07.674Z,52.00
2023-04-11T08:13:34.704Z,51.40
2023-04-11T08:16:03.206Z,52.50
2023-04-11T08:18:30.035Z,47.90
2023-04-11T08:20:56.868Z,44.90
2023-04-11T08:23:24.179Z,47.30
2023-04-11T08:25:51.057Z,46.20
2023-04-11T08:28:18.293Z,45.90
2023-04-11T08:30:45.430Z,42.20
2023-04-11T08:33:12.848Z,43.50
2023-04-11T08:35:43.052Z,40.00
2023-04-11T08:38:10.746Z,39.80
2023-04-11T08:40:37.593Z,39.70
2023-04-11T08:43:10.023Z,40.90
2023-04-11T08:45:36.913Z,39.10
2023-04-11T08:48:03.786Z,36.00
2023-04-11T08:50:30.930Z,35.60
2023-04-11T08:53:00.009Z,33.70
2023-04-11T08:55:27.147Z,34.00
2023-04-11T08:57:55.848Z,29.50
2023-04-11T09:00:24.034Z,28.70
2023-04-11T09:02:54.804Z,28.70
2023-04-11T09:05:40.927Z,25.00
2023-04-11T09:08:11.562Z,22.50
2023-04-11T09:10:39.379Z,25.60
2023-04-11T09:13:20.590Z,24.10
2023-04-11T09:15:47.828Z,28.70
2023-04-11T09:18:33.901Z,32.00
2023-04-11T09:21:02.841Z,30.30
2023-04-11T09:23:29.750Z,28.90
2023-04-11T09:25:57.047Z,30.30
2023-04-11T09:28:24.418Z,30.00
2023-04-11T09:30:55.393Z,30.20
2023-04-11T09:33:23.417Z,29.90
2023-04-11T09:35:51.602Z,30.20
2023-04-11T09:38:32.137Z,27.90
2023-04-11T09:40:59.957Z,25.20
2023-04-11T09:43:27.218Z,22.40
2023-04-11T09:46:07.778Z,16.40
2023-04-11T09:48:46.028Z,14.10
2023-04-11T09:51:18.083Z,12.60
2023-04-11T09:53:55.137Z,11.70
2023-04-11T09:56:22.423Z,14.50
2023-04-11T09:58:50.453Z,14.70
2023-04-11T10:01:19.256Z,14.20
2023-04-11T10:03:50.732Z,18.40
2023-04-11T10:06:50.123Z,17.60
2023-04-11T10:09:17.252Z,18.50
2023-04-11T10:11:44.958Z,15.60
2023-04-11T10:14:38.012Z,16.80
2023-04-11T10:17:13.025Z,17.20
2023-04-11T10:19:40.503Z,18.00
2023-04-11T10:22:07.753Z,16.60
2023-04-11T10:24:34.693Z,15.00
2023-04-11T10:27:04.933Z,14.90
2023-04-11T10:29:36.454Z,14.70
2023-04-11T10:32:12.279Z,13.90
2023-04-11T10:34:40.872Z,6.00
2023-04-11T10:37:08.869Z,1.00
2023-04-11T10:39:51.123Z,1.00
2023-04-11T10:42:27.864Z,2.10
2023-04-11T10:45:13.836Z,1.00
2023-04-11T10:47:40.905Z,1.00
2023-04-11T10:50:37.768Z,1.00
2023-04-11T10:53:06.554Z,1.00
2023-04-11T10:55:46.982Z,1.00
2023-04-11T10:58:20.138Z,1.00
2023-04-11T11:00:47.596Z,1.00
2023-04-11T11:03:15.735Z,1.00
2023-04-11T11:05:42.770Z,1.00
2023-04-11T11:08:09.749Z,1.40
2023-04-11T11:10:37.529Z,1.00
2023-04-11T11:13:05.054Z,1.00
2023-04-11T11:15:38.524Z,5.60
2023-04-11T11:18:07.100Z,3.60
2023-04-11T11:20:34.585Z,3.50
2023-04-11T11:23:02.747Z,1.60
2023-04-11T11:25:29.821Z,1.00
2023-04-11T11:28:08.336Z,1.00
2023-04-11T11:30:35.976Z,1.00
2023-04-11T11:33:20.337Z,1.00
2023-04-11T11:35:50.340Z,1.00
2023-04-11T11:38:17.575Z,1.00
2023-04-11T11:40:46.783Z,1.00
2023-04-11T11:43:13.993Z,1.00
2023-04-11T11:45:40.853Z,1.00
2023-04-11T11:48:07.768Z,1.00
2023-04-11T11:50:34.837Z,1.00
2023-04-11T11:53:19.953Z,1.00
2023-04-11T11:55:47.464Z,1.00
2023-04-11T11:58:14.349Z,1.00
2023-04-11T12:00:41.464Z,1.00
2023-04-11T12:03:11.672Z,1.00
2023-04-11T12:05:38.803Z,1.00
2023-04-11T12:08:07.467Z,1.00
2023-04-11T12:10:45.907Z,1.00
2023-04-11T12:13:13.910Z,1.00
2023-04-11T12:15:41.982Z,1.00
2023-04-11T12:18:09.229Z,1.00
2023-04-11T12:20:36.175Z,1.00
2023-04-11T12:23:03.044Z,1.00
2023-04-11T12:25:30.253Z,1.00
2023-04-11T12:27:57.528Z,1.00
2023-04-11T12:30:24.525Z,1.00
2023-04-11T12:32:51.504Z,1.00
2023-04-11T12:35:18.566Z,1.00
2023-04-11T12:37:46.106Z,1.00
2023-04-11T12:40:13.222Z,1.00
2023-04-11T12:45:11.260Z,1.00
2023-04-11T12:47:38.230Z,1.00
2023-04-11T12:50:06.519Z,1.00
2023-04-11T12:52:34.237Z,1.00
2023-04-11T12:55:01.147Z,1.00
2023-04-11T12:57:28.294Z,1.00
2023-04-11T12:59:55.141Z,1.00
2023-04-11T13:02:22.241Z,1.00
2023-04-11T13:04:50.608Z,1.00
2023-04-11T13:07:17.514Z,1.00
2023-04-11T13:09:44.889Z,1.00
2023-04-11T13:12:12.997Z,1.00
2023-04-11T13:14:40.041Z,1.00
2023-04-11T13:17:07.010Z,1.00
2023-04-11T13:19:33.810Z,1.00
2023-04-11T13:22:01.133Z,1.00
2023-04-11T13:24:28.035Z,1.00
2023-04-11T13:26:54.984Z,1.00
2023-04-11T13:29:21.893Z,1.00
2023-04-11T13:31:49.541Z,1.00
2023-04-11T13:34:16.556Z,1.00
2023-04-11T13:36:44.065Z,1.00
2023-04-11T13:39:11.289Z,1.00
2023-04-11T13:41:38.264Z,1.00
2023-04-11T13:44:05.184Z,1.00
2023-04-11T13:46:31.997Z,1.00
2023-04-11T13:48:59.228Z,1.00
2023-04-11T13:51:27.273Z,1.00
2023-04-11T13:53:54.141Z,1.00
2023-04-11T13:56:21.159Z,1.00
2023-04-11T13:58:48.041Z,1.00
2023-04-11T14:01:15.559Z,1.00
2023-04-11T14:03:42.781Z,1.00
2023-04-11T14:06:10.079Z,1.00
2023-04-11T14:08:37.174Z,1.00
2023-04-11T14:11:04.227Z,1.00
2023-04-11T14:13:31.273Z,1.00
2023-04-11T14:16:07.995Z,1.00
2023-04-11T14:18:36.415Z,1.00
2023-04-11T14:21:03.983Z,1.00
2023-04-11T14:23:31.036Z,1.00
2023-04-11T14:25:57.860Z,1.00
2023-04-11T14:28:27.536Z,1.00
2023-04-11T14:30:55.961Z,1.00
2023-04-11T14:33:23.631Z,1.00
2023-04-11T14:35:53.578Z,1.00
2023-04-11T14:38:20.554Z,1.00
2023-04-11T14:40:47.452Z,1.00
2023-04-11T14:43:14.261Z,1.00
2023-04-11T14:45:41.319Z,1.00
2023-04-11T14:48:08.335Z,1.00
2023-04-11T14:50:35.772Z,1.00
2023-04-11T14:53:02.986Z,1.00
2023-04-11T14:55:30.201Z,1.00
2023-04-11T14:57:57.321Z,1.00
2023-04-11T15:00:24.942Z,1.00
2023-04-11T15:02:53.121Z,1.00
2023-04-11T15:05:20.453Z,1.00
2023-04-11T15:07:48.254Z,1.00
2023-04-11T15:10:16.756Z,1.00
2023-04-11T15:12:43.683Z,1.00
2023-04-11T15:15:11.268Z,1.00
2023-04-11T15:17:48.761Z,1.00
2023-04-11T15:20:16.591Z,1.00
2023-04-11T15:22:44.405Z,1.00
2023-04-11T15:25:12.290Z,1.00
2023-04-11T15:27:40.379Z,1.00
2023-04-11T15:30:07.723Z,1.00
2023-04-11T15:32:34.878Z,1.00
2023-04-11T15:35:01.869Z,1.00
2023-04-11T15:37:28.834Z,1.00
2023-04-11T15:39:57.743Z,1.00
2023-04-11T15:42:24.688Z,1.00
2023-04-11T15:44:51.648Z,1.00
2023-04-11T15:47:18.594Z,1.00
2023-04-11T15:49:45.852Z,1.00
2023-04-11T15:52:12.671Z,1.00
2023-04-11T15:54:39.593Z,1.00
2023-04-11T15:57:06.469Z,1.00
2023-04-11T15:59:33.486Z,1.00
2023-04-11T16:02:00.365Z,1.00
2023-04-11T16:04:27.580Z,1.00
2023-04-11T16:06:54.635Z,1.00
2023-04-11T16:09:21.515Z,1.00
2023-04-11T16:11:48.361Z,1.00
2023-04-11T16:14:15.572Z,1.00
2023-04-11T16:16:44.671Z,1.00
2023-04-11T16:19:11.621Z,1.00
2023-04-11T16:21:38.929Z,1.00
2023-04-11T16:24:05.998Z,1.00
2023-04-11T16:26:32.865Z,1.00
2023-04-11T16:28:59.784Z,1.00
2023-04-11T16:31:27.274Z,1.00
2023-04-11T16:33:55.425Z,1.00
2023-04-11T16:36:22.642Z,1.00
2023-04-11T16:38:49.847Z,1.00
2023-04-11T16:41:20.002Z,1.00
2023-04-11T16:43:46.925Z,1.00
2023-04-11T16:46:14.408Z,1.00
2023-04-11T16:48:42.030Z,1.00
2023-04-11T16:51:12.210Z,1.00
2023-04-11T16:53:39.417Z,1.00
2023-04-11T16:56:06.522Z,1.00
2023-04-11T16:58:33.793Z,1.00
2023-04-11T17:01:01.471Z,1.00
2023-04-11T17:03:28.711Z,1.00
2023-04-11T17:05:55.981Z,1.00
2023-04-11T17:08:22.955Z,1.00
2023-04-11T17:10:49.953Z,1.00
2023-04-11T17:13:18.826Z,1.00
2023-04-11T17:15:46.096Z,1.00
2023-04-11T17:18:50.322Z,1.00
2023-04-11T17:22:49.034Z,1.00
2023-04-11T17:25:16.939Z,1.00
2023-04-11T17:27:45.391Z,1.00
2023-04-11T17:30:12.644Z,1.00
2023-04-11T17:32:39.693Z,1.00
2023-04-11T17:35:07.230Z,1.00
2023-04-11T17:37:35.895Z,1.00
2023-04-11T17:40:12.979Z,1.00
2023-04-11T17:42:41.148Z,1.00
2023-04-11T17:45:17.210Z,1.00
2023-04-11T17:47:46.615Z,1.00
2023-04-11T17:50:14.794Z,1.00
2023-04-11T17:52:45.131Z,1.00
2023-04-11T17:55:15.605Z,1.00
2023-04-11T17:57:43.776Z,1.00
2023-04-11T18:00:24.212Z,1.00
2023-04-11T18:02:54.640Z,1.00
2023-04-11T18:05:25.205Z,1.00
2023-04-11T18:07:55.227Z,1.00
2023-04-11T18:10:23.037Z,1.00
2023-04-11T18:12:52.013Z,1.00
2023-04-11T18:15:22.664Z,1.00
2023-04-11T18:17:51.507Z,1.00
2023-04-11T18:20:18.845Z,1.00
2023-04-11T18:22:48.556Z,1.00
2023-04-11T18:25:15.817Z,1.00
2023-04-11T18:27:43.017Z,1.00
2023-04-11T18:30:12.247Z,1.00
2023-04-11T18:32:45.154Z,1.00
2023-04-11T18:35:15.298Z,1.00
2023-04-11T18:38:09.306Z,1.00
2023-04-11T18:40:37.644Z,1.00
2023-04-11T18:43:04.822Z,1.00
2023-04-11T18:45:35.138Z,1.70
2023-04-11T18:48:03.024Z,1.50
2023-04-11T18:50:30.796Z,2.20
2023-04-11T18:53:04.704Z,2.60
2023-04-11T18:55:33.162Z,2.40
2023-04-11T18:58:01.033Z,2.80
2023-04-11T19:00:30.380Z,2.70
2023-04-11T19:02:57.969Z,3.40
2023-04-11T19:05:25.746Z,3.60
2023-04-11T19:07:53.524Z,4.10
2023-04-11T19:10:21.342Z,5.20
2023-04-11T19:12:48.643Z,6.20
2023-04-11T19:15:15.994Z,7.60
2023-04-11T19:17:43.225Z,8.80
2023-04-11T19:20:13.261Z,9.40
2023-04-11T19:22:41.236Z,9.60
2023-04-11T19:25:12.287Z,10.60
2023-04-11T19:27:44.006Z,10.90
2023-04-11T19:30:13.873Z,11.50
2023-04-11T19:32:43.631Z,12.00
2023-04-11T19:35:11.880Z,12.40
2023-04-11T19:37:41.915Z,13.70
2023-04-11T19:40:15.249Z,13.10
2023-04-11T19:42:43.237Z,13.70
2023-04-11T19:45:11.276Z,13.70
2023-04-11T19:47:41.789Z,14.50
2023-04-11T19:50:13.532Z,15.80
2023-04-11T19:52:42.148Z,14.70
2023-04-11T19:55:10.392Z,15.00
2023-04-11T19:57:39.496Z,15.50
2023-04-11T20:00:12.547Z,15.80
2023-04-11T20:02:44.674Z,16.10
2023-04-11T20:05:14.177Z,16.10
2023-04-11T20:07:44.562Z,16.30
2023-04-11T20:10:13.504Z,16.70
2023-04-11T20:12:41.220Z,17.80
2023-04-11T20:15:09.539Z,18.10
2023-04-11T20:17:36.936Z,18.50
2023-04-11T20:20:08.591Z,18.90
2023-04-11T20:22:38.406Z,19.80
2023-04-11T20:25:07.548Z,20.20
2023-04-11T20:27:35.520Z,21.00
2023-04-11T20:30:07.075Z,22.00
2023-04-11T20:32:34.545Z,22.70
2023-04-11T20:35:03.459Z,23.50
2023-04-11T20:37:31.670Z,23.70
2023-04-11T20:39:59.073Z,24.20
2023-04-11T20:42:27.905Z,23.70
2023-04-11T20:45:06.349Z,23.90
2023-04-11T20:47:38.259Z,24.10
2023-04-11T20:50:07.453Z,24.20
2023-04-11T20:52:35.448Z,24.00
2023-04-11T20:55:03.907Z,23.90
2023-04-11T20:57:30.970Z,23.50
2023-04-11T20:59:59.454Z,23.50
2023-04-11T21:02:28.015Z,22.90
2023-04-11T21:04:56.916Z,23.20
2023-04-11T21:07:24.065Z,24.50
2023-04-11T21:09:51.265Z,25.40
2023-04-11T21:12:19.410Z,25.00
2023-04-11T21:14:46.398Z,26.80
2023-04-11T21:17:13.845Z,27.40
2023-04-11T21:19:41.212Z,29.20
2023-04-11T21:22:09.162Z,29.10
2023-04-11T21:24:36.268Z,31.00
2023-04-11T21:27:03.264Z,32.50
2023-04-11T21:29:30.436Z,32.70
2023-04-11T21:31:57.684Z,33.40
2023-04-11T21:34:24.995Z,35.60
2023-04-11T21:36:55.374Z,36.00
2023-04-11T21:39:22.606Z,37.90
2023-04-11T21:41:49.734Z,38.90
2023-04-11T21:44:16.792Z,41.30
2023-04-11T21:46:43.949Z,41.90
2023-04-11T21:49:11.124Z,41.90
2023-04-11T21:51:38.120Z,41.90
2023-04-11T21:54:06.528Z,44.10
2023-04-11T21:56:34.625Z,45.00
2023-04-11T21:59:01.647Z,46.30
2023-04-11T22:01:29.230Z,48.30
2023-04-11T22:03:59.266Z,49.10
2023-04-11T22:06:26.632Z,50.50
2023-04-11T22:08:54.851Z,50.40
2023-04-11T22:11:21.895Z,53.80
2023-04-11T22:13:48.784Z,55.00
2023-04-11T22:16:15.894Z,57.60
2023-04-11T22:18:49.067Z,59.40
2023-04-11T22:21:20.952Z,62.60
2023-04-11T22:23:49.128Z,66.80
2023-04-11T22:26:17.642Z,69.50
2023-04-11T22:28:45.511Z,71.70
2023-04-11T22:31:13.679Z,73.10
2023-04-11T22:33:41.332Z,74.10
2023-04-11T22:36:12.530Z,76.90
2023-04-11T22:38:40.396Z,77.10
2023-04-11T22:41:13.941Z,78.00
2023-04-11T22:43:40.907Z,78.80
2023-04-11T22:46:09.113Z,81.70
2023-04-11T22:48:36.500Z,80.60
2023-04-11T22:51:05.994Z,83.10
2023-04-11T22:53:34.656Z,84.40
2023-04-11T22:56:02.068Z,84.50
2023-04-11T22:58:29.091Z,84.40
2023-04-11T23:00:56.079Z,85.80
2023-04-11T23:03:23.078Z,87.10
2023-04-11T23:05:50.076Z,87.50
2023-04-11T23:08:17.524Z,89.70
2023-04-11T23:10:44.435Z,88.40
2023-04-11T23:13:11.450Z,90.10
2023-04-11T23:15:39.333Z,90.30
2023-04-11T23:18:06.869Z,92.20
2023-04-11T23:20:37.172Z,91.30
2023-04-11T23:23:04.210Z,93.20
2023-04-11T23:25:31.270Z,92.70
2023-04-11T23:27:58.201Z,93.60
2023-04-11T23:30:25.286Z,94.80
2023-04-11T23:32:53.399Z,96.10
2023-04-11T23:35:21.020Z,95.90
2023-04-11T23:37:47.935Z,97.40
2023-04-11T23:40:15.070Z,97.40
2023-04-11T23:42:42.127Z,97.40
2023-04-11T23:45:10.750Z,98.50
2023-04-11T23:47:37.980Z,98.40
2023-04-11T23:50:05.288Z,98.50
2023-04-11T23:52:32.334Z,99.00
2023-04-11T23:54:59.479Z,99.50
2023-04-11T23:57:26.464Z,98.40
2023-04-11T23:59:53.692Z,98.80
